Evansville, AR (72729)

4:27 PM CDT on July 28, 2015 (GMT -0500)
KARPRAIR2 | | Change Station
CLOSE
Current Station
Personal Weather Station
Location: Prairie Grove, AR
Elevation: 1385 ft
Nearby Weather Stations

Elev 1385 ft 35.93 °N, 94.33 °W | Updated 9 minutes ago

Clear
Clear
92.6 °F
Feels Like 106 °F
N
0.0
Wind Variable Wind from WSW
Gusts 6.0 mph

Today
High -- | Low -- °F
--% Chance of Precip.
Yesterday
High -- | Low -- °F
Precip. -- in
6:22 AM 8:25 PM
Waxing Gibbous, 91% visible
Pressure 29.96 in
Visibility 10.0 miles
Clouds Few 4600 ft
Heat Index 106 °F
Dew Point 76 °F
Humidity 59%
Rainfall 0.00 in
Snow Depth Not available.
UV 8 out of 12
Pollen 5.10 out of 12
Air Quality Not available.
Flu Activity Not available.
METAR KFYV 282053Z 18007KT 10SM FEW046 32/24 A3000 RMK AO2 SLP143 T03220239 56007

More Conditions Fewer Conditions

Pressure 29.96 in
Visibility 10.0 miles
Clouds Few 4600 ft
Heat Index 106 °F
Dew Point 76 °F
Humidity 59%
Rainfall 0.00 in
Snow Depth Not available.
UV 8 out of 12
Pollen 5.10 out of 12
Air Quality Not available.
Flu Activity Not available.
METAR KFYV 282053Z 18007KT 10SM FEW046 32/24 A3000 RMK AO2 SLP143 T03220239 56007

More Conditions Fewer Conditions

A strong ridge of high pressure will aid in providing some of the warmest temperatures of the Summer thus far along the West Coast, while dangerously high heat index values up to 110 degrees will be possible from southern Iowa through northern Louisiana. Residents are urged to take precaution while working outside.

10-Day Weather Forecast

×

Almanac

Astronomy

Jul. 28, 2015 Rise Set
Actual Time
Civil Twilight
Nautical Twilight
Astronomical Twilight
Moon
Length of Visible Light
Length of Day
Tomorrow will be .
, % of the Moon is Illuminated

Today's Extremes

State Highs State Lows

Community

WunderPhotos

Upload Photos

1,841,945 photos uploaded!

WunderBlogs® & News

Nearby

Air Quality

  Air Quality AQ Index Pollutant
Not available.

Snow Depth

Station Depth Elevation

Earthquake Activity

City Distance Mag. Time & Date
Minimum magnitude displayed is 2.5.

Coastal Water Temperatures

Place Temperature

Stations

Nearby Weather Stations

Station Location Temp. Windchill Dew Point Humidity Wind Precip. Elev Updated Type